Track Авдеев Виталий

Time Latitude Longitude Accuracy (66% radius in meters) Altitude (meters) Speed (km/hour) Bearing (degrees) Battery (%) GPS flag
06:38:49 57.213187 60.115079 0 0 0 0 1 delete
06:38:46 57.213258 60.114934 0 0 0 0 1 delete
06:38:44 57.213272 60.114803 0 0 0 0 1 delete
06:38:40 57.213144 60.114688 0 0 0 0 1 delete
06:38:34 57.213053 60.114425 0 0 0 0 1 delete
06:38:33 57.213036 60.114387 0 0 0 0 1 delete
06:38:31 57.213018 60.114318 0 0 0 0 1 delete
06:38:27 57.212993 60.114258 0 0 0 0 1 delete
06:38:26 57.212976 60.114203 0 0 0 0 1 delete
06:38:24 57.212897 60.114152 0 0 0 0 1 delete
06:38:22 57.212814 60.114196 0 0 0 0 1 delete
06:38:20 57.212750 60.114176 0 0 0 0 1 delete
06:38:15 57.212584 60.113993 0 0 0 0 1 delete
06:38:14 57.212541 60.113961 0 0 0 0 1 delete
06:38:11 57.212549 60.113780 0 0 0 0 1 delete
06:38:10 57.212570 60.113743 0 0 0 0 1 delete
06:38:08 57.212558 60.113592 0 0 0 0 1 delete
06:38:04 57.212448 60.113411 0 0 0 0 1 delete
06:38:03 57.212434 60.113355 0 0 0 0 1 delete
06:38:01 57.212454 60.113219 0 0 0 0 1 delete
06:37:57 57.212421 60.112894 0 0 0 0 1 delete
06:37:56 57.212404 60.112824 0 0 0 0 1 delete
06:37:54 57.212330 60.112859 0 0 0 0 1 delete
06:37:50 57.212229 60.112996 0 0 0 0 1 delete
06:37:47 57.212241 60.112987 0 0 0 0 1 delete
06:37:45 57.212252 60.112852 0 0 0 0 1 delete
06:37:43 57.212194 60.112691 0 0 0 0 1 delete
06:37:42 57.212157 60.112617 0 0 0 0 1 delete
06:37:41 57.212092 60.112535 0 0 0 0 1 delete
06:37:37 57.211929 60.112629 0 0 0 0 1 delete
06:37:35 57.211884 60.112568 0 0 0 0 1 delete
06:37:34 57.211884 60.112463 0 0 0 0 1 delete
06:37:32 57.211844 60.112365 0 0 0 0 1 delete
06:37:30 57.211824 60.112257 0 0 0 0 1 delete
06:37:24 57.211761 60.111918 0 0 0 0 1 delete
06:37:18 57.211745 60.111820 0 0 0 0 1 delete
06:37:17 57.211755 60.111828 0 0 0 0 1 delete
06:37:13 57.211804 60.112002 0 0 0 0 1 delete
06:37:12 57.211815 60.112056 0 0 0 0 1 delete
06:37:08 57.211805 60.112248 0 0 0 0 1 delete
06:37:04 57.211787 60.112444 0 0 0 0 1 delete
06:37:02 57.211757 60.112591 0 0 0 0 1 delete
06:37:01 57.211758 60.112648 0 0 0 0 1 delete
06:37:00 57.211732 60.112709 0 0 0 0 1 delete
06:36:59 57.211710 60.112759 0 0 0 0 1 delete
06:36:57 57.211623 60.112785 0 0 0 0 1 delete
06:36:54 57.211487 60.112835 0 0 0 0 1 delete
06:36:53 57.211439 60.112874 0 0 0 0 1 delete
06:36:50 57.211297 60.112856 0 0 0 0 1 delete
06:36:49 57.211251 60.112802 0 0 0 0 1 delete